createdAt,value
2022-12-23T00:00:30.834Z,92945.84
2022-12-23T00:01:32.344Z,92940.63
2022-12-23T00:02:33.987Z,92941.47
2022-12-23T00:03:35.886Z,92934.56
2022-12-23T00:04:37.497Z,92933.31
2022-12-23T00:05:39.715Z,92935.34
2022-12-23T00:06:41.340Z,92950.53
2022-12-23T00:07:42.848Z,92956.38
2022-12-23T00:08:44.741Z,92950.41
2022-12-23T00:09:46.338Z,92943.59
2022-12-23T00:10:48.862Z,92940.16
2022-12-23T00:11:50.371Z,92951.03
2022-12-23T00:12:53.199Z,92939.44
2022-12-23T00:13:54.725Z,92937.59
2022-12-23T00:14:56.239Z,92935.38
2022-12-23T00:16:02.515Z,92925.28
2022-12-23T00:17:09.271Z,92944.63
2022-12-23T00:18:22.988Z,92929.59
2022-12-23T00:19:24.657Z,92930.53
2022-12-23T00:20:26.164Z,92930.66
2022-12-23T00:21:27.662Z,92928.06
2022-12-23T00:22:29.270Z,92924.66
2022-12-23T00:23:32.269Z,92928.88
2022-12-23T00:24:33.735Z,92931.75
2022-12-23T00:25:36.693Z,92926.13
2022-12-23T00:26:38.581Z,92926.09
2022-12-23T00:27:40.378Z,92932.06
2022-12-23T00:28:43.660Z,92933.53
2022-12-23T00:29:45.169Z,92931.91
2022-12-23T00:30:48.513Z,92932.00
2022-12-23T00:31:50.015Z,92923.09
2022-12-23T00:32:51.498Z,92932.59
2022-12-23T00:33:53.080Z,92920.84
2022-12-23T00:34:54.610Z,92921.06
2022-12-23T00:35:56.345Z,92923.56
2022-12-23T00:36:57.858Z,92924.25
2022-12-23T00:37:59.377Z,92917.81
2022-12-23T00:39:00.902Z,92912.00
2022-12-23T00:40:06.612Z,92918.88
2022-12-23T00:41:11.446Z,92917.16
2022-12-23T00:42:12.939Z,92917.38
2022-12-23T00:43:14.452Z,92910.69
2022-12-23T00:44:17.434Z,92913.78
2022-12-23T00:45:19.024Z,92922.03
2022-12-23T00:46:20.600Z,92913.22
2022-12-23T00:47:22.149Z,92920.09
2022-12-23T00:48:23.613Z,92901.34
2022-12-23T00:49:25.112Z,92890.81
2022-12-23T00:50:26.695Z,92915.66
2022-12-23T00:51:28.205Z,92918.72
2022-12-23T00:52:29.678Z,92912.50
2022-12-23T00:53:31.277Z,92894.44
2022-12-23T00:54:33.135Z,92905.97
2022-12-23T00:55:34.631Z,92913.66
2022-12-23T00:56:36.148Z,92924.53
2022-12-23T00:57:37.632Z,92924.97
2022-12-23T00:58:39.127Z,92925.97
2022-12-23T00:59:41.978Z,92926.59
2022-12-23T01:00:44.415Z,92923.75
2022-12-23T01:01:46.116Z,92921.13
2022-12-23T01:02:47.749Z,92937.72
2022-12-23T01:03:49.271Z,92942.50
2022-12-23T01:04:50.869Z,92923.34
2022-12-23T01:05:52.414Z,92938.75
2022-12-23T01:06:53.887Z,92933.22
2022-12-23T01:07:55.360Z,92936.72
2022-12-23T01:08:56.866Z,92936.13
2022-12-23T01:09:58.347Z,92930.28
2022-12-23T01:11:02.813Z,92929.88
2022-12-23T01:12:05.125Z,92932.31
2022-12-23T01:13:06.909Z,92943.03
2022-12-23T01:14:08.768Z,92938.16
2022-12-23T01:15:11.801Z,92933.94
2022-12-23T01:16:17.126Z,92940.94
2022-12-23T01:17:19.326Z,92942.59
2022-12-23T01:18:20.871Z,92944.56
2022-12-23T01:19:22.637Z,92945.59
2022-12-23T01:20:24.682Z,92947.47
2022-12-23T01:21:26.141Z,92946.25
2022-12-23T01:22:27.635Z,92947.06
2022-12-23T01:23:29.204Z,92949.09
2022-12-23T01:24:31.781Z,92946.56
2022-12-23T01:25:33.625Z,92949.03
2022-12-23T01:26:35.545Z,92952.50
2022-12-23T01:27:37.408Z,92950.09
2022-12-23T01:28:38.925Z,92958.78
2022-12-23T01:29:40.461Z,92960.19
2022-12-23T01:30:43.601Z,92964.16
2022-12-23T01:31:45.174Z,92954.16
2022-12-23T01:32:46.698Z,92962.19
2022-12-23T01:33:48.195Z,92968.31
2022-12-23T01:34:49.710Z,92963.84
2022-12-23T01:35:51.266Z,92970.75
2022-12-23T01:36:52.749Z,92958.03
2022-12-23T01:37:54.231Z,92960.03
2022-12-23T01:38:56.342Z,92954.72
2022-12-23T01:39:57.850Z,92959.38
2022-12-23T01:40:59.481Z,92959.13
2022-12-23T01:42:01.093Z,92963.91
2022-12-23T01:43:02.639Z,92960.13
2022-12-23T01:44:42.601Z,92961.97
2022-12-23T01:45:46.293Z,92957.66
2022-12-23T01:46:47.868Z,92967.63
2022-12-23T01:47:53.071Z,92964.97
2022-12-23T01:48:56.022Z,92968.16
2022-12-23T01:50:02.607Z,92962.28
2022-12-23T01:51:07.708Z,92967.34
2022-12-23T01:52:10.581Z,92961.50
2022-12-23T01:53:16.858Z,92969.16
2022-12-23T01:54:18.381Z,92971.41
2022-12-23T01:55:27.557Z,92977.03
2022-12-23T01:56:34.531Z,92983.38
2022-12-23T01:57:38.591Z,92976.47
2022-12-23T01:58:44.529Z,92982.06
2022-12-23T01:59:46.208Z,92981.31
2022-12-23T02:00:49.132Z,92975.66
2022-12-23T02:01:50.743Z,92980.13
2022-12-23T02:02:52.650Z,92969.47
2022-12-23T02:03:57.505Z,92968.41
2022-12-23T02:04:59.709Z,92975.91
2022-12-23T02:06:21.896Z,92974.28
2022-12-23T02:07:23.484Z,92975.28
2022-12-23T02:08:24.954Z,92973.47
2022-12-23T02:09:28.942Z,92977.50
2022-12-23T02:10:53.123Z,92986.00
2022-12-23T02:12:27.106Z,92982.28
2022-12-23T02:13:36.883Z,92979.50
2022-12-23T02:14:53.410Z,92984.56
2022-12-23T02:16:04.416Z,92984.38
2022-12-23T02:17:12.247Z,92979.09
2022-12-23T02:18:30.808Z,92986.19
2022-12-23T02:20:05.394Z,92992.25
2022-12-23T02:21:27.037Z,92990.22
2022-12-23T02:22:39.291Z,92995.47
2022-12-23T02:24:12.528Z,92994.84
2022-12-23T02:25:44.579Z,92997.66
2022-12-23T02:27:06.878Z,92998.91
2022-12-23T02:28:17.313Z,92997.41
2022-12-23T02:29:40.998Z,92994.81
2022-12-23T02:30:48.464Z,93005.19
2022-12-23T02:31:57.538Z,93002.53
2022-12-23T02:33:17.278Z,93007.78
2022-12-23T02:34:23.843Z,93015.63
2022-12-23T02:35:31.861Z,93000.66
2022-12-23T02:36:40.678Z,93007.19
2022-12-23T02:37:53.406Z,93011.66
2022-12-23T02:39:02.081Z,93015.16
2022-12-23T02:40:10.044Z,93004.91
2022-12-23T02:41:19.938Z,93020.91
2022-12-23T02:42:25.640Z,93013.63
2022-12-23T02:43:35.460Z,93001.88
2022-12-23T02:44:44.711Z,93009.81
2022-12-23T02:45:53.977Z,93009.81
2022-12-23T02:47:00.482Z,93004.78
2022-12-23T02:48:07.493Z,93013.28
2022-12-23T02:49:12.770Z,93012.00
2022-12-23T02:50:19.246Z,93016.06
2022-12-23T02:51:26.874Z,93012.88
2022-12-23T02:52:32.236Z,93009.84
2022-12-23T02:53:37.309Z,93018.91
2022-12-23T02:54:45.625Z,93007.22
2022-12-23T02:55:50.366Z,93015.91
2022-12-23T02:56:54.134Z,93012.66
2022-12-23T02:57:57.770Z,93013.25
2022-12-23T02:59:04.892Z,93015.91
2022-12-23T03:00:08.096Z,93016.25
2022-12-23T03:01:13.135Z,93016.94
2022-12-23T03:02:14.866Z,93019.34
2022-12-23T03:03:16.567Z,93025.41
2022-12-23T03:04:18.243Z,93012.84
2022-12-23T03:05:28.778Z,93021.31
2022-12-23T03:06:36.518Z,93020.22
2022-12-23T03:07:41.375Z,93030.72
2022-12-23T03:08:44.324Z,93028.28
2022-12-23T03:09:55.081Z,93023.84
2022-12-23T03:11:04.692Z,93026.50
2022-12-23T03:12:12.207Z,93018.38
2022-12-23T03:13:25.124Z,93024.66
2022-12-23T03:14:40.091Z,93023.16
2022-12-23T03:15:49.295Z,93037.59
2022-12-23T03:17:00.551Z,93033.44
2022-12-23T03:18:09.347Z,93030.31
2022-12-23T03:19:18.172Z,93032.53
2022-12-23T03:20:26.483Z,93038.22
2022-12-23T03:21:33.058Z,93033.91
2022-12-23T03:22:40.586Z,93044.28
2022-12-23T03:23:55.061Z,93031.38
2022-12-23T03:25:05.715Z,93029.44
2022-12-23T03:26:14.457Z,93032.16
2022-12-23T03:27:22.373Z,93025.84
2022-12-23T03:28:29.527Z,93037.16
2022-12-23T03:29:41.394Z,93045.84
2022-12-23T03:30:48.777Z,93050.91
2022-12-23T03:31:52.895Z,93044.91
2022-12-23T03:33:02.022Z,93043.63
2022-12-23T03:34:08.569Z,93043.25
2022-12-23T03:35:12.556Z,93047.72
2022-12-23T03:36:20.283Z,93047.28
2022-12-23T03:37:25.622Z,93046.44
2022-12-23T03:38:28.763Z,93048.09
2022-12-23T03:39:36.615Z,93042.09
2022-12-23T03:40:41.724Z,93048.91
2022-12-23T03:41:48.927Z,93045.72
2022-12-23T03:42:56.632Z,93051.19
2022-12-23T03:44:02.837Z,93055.44
2022-12-23T03:45:37.589Z,93050.19
2022-12-23T03:46:38.898Z,93056.38
2022-12-23T03:47:44.500Z,93054.44
2022-12-23T03:48:50.260Z,93049.75
2022-12-23T03:50:09.167Z,93059.16
2022-12-23T03:51:15.414Z,93063.94
2022-12-23T03:52:21.647Z,93060.09
2022-12-23T03:53:28.101Z,93054.66
2022-12-23T03:54:35.368Z,93060.31
2022-12-23T03:55:41.241Z,93055.50
2022-12-23T03:56:46.362Z,93071.66
2022-12-23T03:57:55.713Z,93054.84
2022-12-23T03:59:00.656Z,93062.16
2022-12-23T04:00:02.936Z,93052.47
2022-12-23T04:01:12.855Z,93048.84
2022-12-23T04:02:21.558Z,93060.31
2022-12-23T04:03:34.827Z,93064.31
2022-12-23T04:04:50.880Z,93057.09
2022-12-23T04:05:57.101Z,93064.00
2022-12-23T04:07:03.503Z,93059.75
2022-12-23T04:08:11.636Z,93064.19
2022-12-23T04:09:21.748Z,93067.28
2022-12-23T04:10:24.836Z,93065.38
2022-12-23T04:11:26.371Z,93065.59
2022-12-23T04:12:29.291Z,93067.81
2022-12-23T04:13:31.611Z,93060.72
2022-12-23T04:14:35.295Z,93066.56
2022-12-23T04:15:40.021Z,93067.44
2022-12-23T04:16:41.568Z,93065.34
2022-12-23T04:17:43.068Z,93072.25
2022-12-23T04:18:44.547Z,93069.47
2022-12-23T04:19:47.671Z,93065.63
2022-12-23T04:20:49.205Z,93067.84
2022-12-23T04:21:50.726Z,93064.81
2022-12-23T04:22:52.193Z,93068.63
2022-12-23T04:23:53.700Z,93080.41
2022-12-23T04:24:55.258Z,93072.50
2022-12-23T04:25:56.846Z,93079.81
2022-12-23T04:26:58.321Z,93082.63
2022-12-23T04:27:59.834Z,93077.19
2022-12-23T04:29:01.416Z,93080.25
2022-12-23T04:30:03.225Z,93080.41
2022-12-23T04:31:04.902Z,93079.84
2022-12-23T04:32:06.635Z,93080.59
2022-12-23T04:33:10.535Z,93083.25
2022-12-23T04:34:12.084Z,93075.16
2022-12-23T04:35:15.025Z,93079.63
2022-12-23T04:36:16.498Z,93087.09
2022-12-23T04:37:18.070Z,93083.91
2022-12-23T04:38:19.575Z,93087.75
2022-12-23T04:39:21.108Z,93090.78
2022-12-23T04:40:22.636Z,93088.16
2022-12-23T04:41:24.144Z,93091.81
2022-12-23T04:42:25.641Z,93089.59
2022-12-23T04:43:27.139Z,93091.03
2022-12-23T04:44:28.623Z,93105.75
2022-12-23T04:45:30.159Z,93098.28
2022-12-23T04:46:31.684Z,93103.81
2022-12-23T04:47:33.213Z,93108.81
2022-12-23T04:48:35.896Z,93099.13
2022-12-23T04:49:37.490Z,93101.34
2022-12-23T04:50:40.679Z,93096.31
2022-12-23T04:51:42.177Z,93095.88
2022-12-23T04:52:44.040Z,93090.44
2022-12-23T04:53:45.517Z,93093.00
2022-12-23T04:54:46.991Z,93094.19
2022-12-23T04:55:50.221Z,93095.81
2022-12-23T04:56:51.717Z,93087.72
2022-12-23T04:57:53.200Z,93095.38
2022-12-23T04:58:54.738Z,93098.84
2022-12-23T04:59:56.251Z,93090.75
2022-12-23T05:01:02.022Z,93100.09
2022-12-23T05:02:03.747Z,93106.13
2022-12-23T05:03:05.492Z,93105.34
2022-12-23T05:04:07.032Z,93104.94
2022-12-23T05:05:08.791Z,93100.28
2022-12-23T05:06:11.630Z,93107.53
2022-12-23T05:07:13.182Z,93104.28
2022-12-23T05:08:14.683Z,93107.16
2022-12-23T05:09:22.311Z,93103.91
2022-12-23T05:10:23.773Z,93106.53
2022-12-23T05:11:25.322Z,93105.13
2022-12-23T05:12:32.982Z,93108.16
2022-12-23T05:13:34.493Z,93105.44
2022-12-23T05:14:35.994Z,93114.81
2022-12-23T05:15:37.556Z,93113.41
2022-12-23T05:16:39.174Z,93112.75
2022-12-23T05:17:40.682Z,93116.63
2022-12-23T05:18:42.555Z,93125.94
2022-12-23T05:19:44.038Z,93119.69
2022-12-23T05:20:45.991Z,93118.09
2022-12-23T05:21:48.811Z,93114.56
2022-12-23T05:22:50.323Z,93128.47
2022-12-23T05:23:51.822Z,93130.13
2022-12-23T05:24:54.768Z,93132.00
2022-12-23T05:25:56.266Z,93118.25
2022-12-23T05:27:00.205Z,93118.66
2022-12-23T05:28:02.395Z,93119.69
2022-12-23T05:29:04.467Z,93118.66
2022-12-23T05:30:07.632Z,93122.31
2022-12-23T05:31:10.339Z,93119.81
2022-12-23T05:32:11.942Z,93120.44
2022-12-23T05:33:14.136Z,93119.25
2022-12-23T05:34:15.716Z,93122.72
2022-12-23T05:35:17.289Z,93129.41
2022-12-23T05:36:18.774Z,93128.81
2022-12-23T05:37:21.631Z,93131.09
2022-12-23T05:38:26.731Z,93132.72
2022-12-23T05:39:28.205Z,93132.00
2022-12-23T05:40:31.220Z,93128.09
2022-12-23T05:41:34.696Z,93128.31
2022-12-23T05:42:36.224Z,93130.84
2022-12-23T05:43:37.706Z,93130.84
2022-12-23T05:44:39.218Z,93126.00
2022-12-23T05:45:40.786Z,93133.66
2022-12-23T05:46:42.490Z,93123.97
2022-12-23T05:47:44.076Z,93131.25
2022-12-23T05:48:45.768Z,93137.94
2022-12-23T05:49:47.269Z,93132.06
2022-12-23T05:50:49.341Z,93134.00
2022-12-23T05:51:50.874Z,93143.50
2022-12-23T05:52:53.845Z,93144.47
2022-12-23T05:53:55.370Z,93139.19
2022-12-23T05:54:56.904Z,93139.19
2022-12-23T05:55:58.451Z,93141.22
2022-12-23T05:56:59.912Z,93138.81
2022-12-23T05:58:01.753Z,93135.16
2022-12-23T05:59:03.275Z,93139.03
2022-12-23T06:00:05.626Z,93141.22
2022-12-23T06:01:07.175Z,93139.63
2022-12-23T06:02:08.929Z,93143.09
2022-12-23T06:03:11.033Z,93131.03
2022-12-23T06:04:12.721Z,93139.13
2022-12-23T06:05:14.567Z,93144.25
2022-12-23T06:06:16.051Z,93141.75
2022-12-23T06:07:17.539Z,93148.97
2022-12-23T06:08:20.714Z,93142.25
2022-12-23T06:09:22.262Z,93146.72
2022-12-23T06:10:23.774Z,93148.97
2022-12-23T06:11:25.283Z,93148.91
2022-12-23T06:12:26.785Z,93150.75
2022-12-23T06:13:28.273Z,93157.63
2022-12-23T06:14:29.834Z,93154.59
2022-12-23T06:15:31.950Z,93169.38
2022-12-23T06:16:33.664Z,93157.72
2022-12-23T06:17:36.364Z,93160.06
2022-12-23T06:18:37.880Z,93156.63
2022-12-23T06:19:39.367Z,93156.06
2022-12-23T06:20:40.847Z,93149.59
2022-12-23T06:21:42.357Z,93159.50
2022-12-23T06:22:43.843Z,93150.16
2022-12-23T06:23:46.694Z,93152.88
2022-12-23T06:24:48.359Z,93153.97
2022-12-23T06:25:49.877Z,93147.31
2022-12-23T06:26:56.858Z,93150.75
2022-12-23T06:27:58.877Z,93157.66
2022-12-23T06:29:00.348Z,93150.78
2022-12-23T06:30:01.889Z,93151.31
2022-12-23T06:31:03.452Z,93151.09
2022-12-23T06:32:05.207Z,93145.50
2022-12-23T06:33:06.831Z,93158.19
2022-12-23T06:34:08.333Z,93160.91
2022-12-23T06:35:09.931Z,93166.53
2022-12-23T06:36:11.436Z,93159.22
2022-12-23T06:37:12.954Z,93157.66
2022-12-23T06:38:14.525Z,93160.22
2022-12-23T06:39:17.376Z,93151.09
2022-12-23T06:40:19.064Z,93153.91
2022-12-23T06:41:20.525Z,93152.47
2022-12-23T06:42:22.046Z,93158.59
2022-12-23T06:43:23.533Z,93154.50
2022-12-23T06:44:25.001Z,93153.72
2022-12-23T06:45:26.829Z,93162.25
2022-12-23T06:46:40.347Z,93167.19
2022-12-23T06:47:41.894Z,93171.25
2022-12-23T06:48:43.370Z,93177.56
2022-12-23T06:49:44.844Z,93173.94
2022-12-23T06:50:46.391Z,93170.19
2022-12-23T06:51:47.896Z,93171.59
2022-12-23T06:52:49.449Z,93170.03
2022-12-23T06:53:50.909Z,93175.22
2022-12-23T06:54:53.747Z,93173.41
2022-12-23T06:55:59.513Z,93173.44
2022-12-23T06:57:01.032Z,93173.22
2022-12-23T06:58:02.522Z,93179.94
2022-12-23T06:59:04.020Z,93178.53
2022-12-23T07:00:06.633Z,93180.53
2022-12-23T07:01:09.999Z,93178.31
2022-12-23T07:02:12.173Z,93185.00
2022-12-23T07:03:13.956Z,93184.00
2022-12-23T07:04:15.500Z,93188.69
2022-12-23T07:05:17.012Z,93187.28
2022-12-23T07:06:18.538Z,93186.47
2022-12-23T07:07:20.078Z,93198.00
2022-12-23T07:08:21.810Z,93196.56
2022-12-23T07:09:23.311Z,93188.47
2022-12-23T07:10:26.149Z,93193.72
2022-12-23T07:11:27.622Z,93189.53
2022-12-23T07:12:29.172Z,93191.88
2022-12-23T07:13:31.646Z,93191.47
2022-12-23T07:14:33.176Z,93193.72
2022-12-23T07:15:35.469Z,93194.53
2022-12-23T07:16:36.963Z,93195.75
2022-12-23T07:17:38.525Z,93198.84
2022-12-23T07:18:40.159Z,93199.84
2022-12-23T07:19:41.726Z,93198.00
2022-12-23T07:20:43.268Z,93194.72
2022-12-23T07:21:44.799Z,93192.66
2022-12-23T07:22:46.385Z,93195.94
2022-12-23T07:23:47.873Z,93200.84
2022-12-23T07:24:49.522Z,93204.91
2022-12-23T07:25:52.409Z,93196.53
2022-12-23T07:26:53.929Z,93195.56
2022-12-23T07:27:55.602Z,93201.06
2022-12-23T07:28:57.146Z,93199.44
2022-12-23T07:29:58.628Z,93196.41
2022-12-23T07:31:00.213Z,93199.66
2022-12-23T07:32:02.242Z,93199.84
2022-12-23T07:33:04.118Z,93197.81
2022-12-23T07:34:05.595Z,93202.63
2022-12-23T07:35:07.574Z,93207.69
2022-12-23T07:36:09.489Z,93204.84
2022-12-23T07:37:11.089Z,93207.31
2022-12-23T07:38:12.676Z,93204.53
2022-12-23T07:39:14.186Z,93197.41
2022-12-23T07:40:31.057Z,93203.50
2022-12-23T07:41:33.909Z,93203.09
2022-12-23T07:42:50.666Z,93200.88
2022-12-23T07:43:52.234Z,93204.13
2022-12-23T07:44:53.703Z,93205.50
2022-12-23T07:45:59.965Z,93200.28
2022-12-23T07:47:02.030Z,93201.47
2022-12-23T07:48:03.675Z,93194.59
2022-12-23T07:49:05.698Z,93202.28
2022-12-23T07:50:08.310Z,93193.59
2022-12-23T07:51:09.856Z,93207.31
2022-12-23T07:52:11.325Z,93203.31
2022-12-23T07:53:12.803Z,93204.13
2022-12-23T07:54:14.292Z,93200.28
2022-12-23T07:55:15.901Z,93197.22
2022-12-23T07:56:17.551Z,93199.84
2022-12-23T07:57:20.402Z,93201.63
2022-12-23T07:58:21.903Z,93198.84
2022-12-23T07:59:43.189Z,93206.34
2022-12-23T08:00:44.755Z,93209.56
2022-12-23T08:01:46.400Z,93214.22
2022-12-23T08:02:48.538Z,93206.13
2022-12-23T08:03:50.241Z,93199.25
2022-12-23T08:04:51.822Z,93200.84
2022-12-23T08:05:59.700Z,93197.59
2022-12-23T08:07:16.446Z,93203.31
2022-12-23T08:08:17.918Z,93195.84
2022-12-23T08:09:19.379Z,93186.88
2022-12-23T08:10:20.925Z,93188.75
2022-12-23T08:11:22.469Z,93195.63
2022-12-23T08:12:25.961Z,93207.72
2022-12-23T08:13:27.913Z,93201.69
2022-12-23T08:14:29.416Z,93195.81
2022-12-23T08:15:30.901Z,93203.72
2022-12-23T08:16:36.576Z,93196.81
2022-12-23T08:17:41.143Z,93201.28
2022-12-23T08:18:42.696Z,93197.66
2022-12-23T08:19:44.223Z,93199.88
2022-12-23T08:20:53.636Z,93199.41
2022-12-23T08:21:55.164Z,93195.41
2022-12-23T08:22:56.688Z,93200.31
2022-12-23T08:23:58.189Z,93194.41
2022-12-23T08:24:59.716Z,93200.88
2022-12-23T08:26:02.985Z,93210.44
2022-12-23T08:27:04.456Z,93211.03
2022-12-23T08:28:07.277Z,93208.41
2022-12-23T08:29:08.788Z,93214.50
2022-12-23T08:30:11.354Z,93212.69
2022-12-23T08:31:14.375Z,93213.72
2022-12-23T08:32:15.968Z,93224.59
2022-12-23T08:33:17.429Z,93219.16
2022-12-23T08:34:18.959Z,93220.78
2022-12-23T08:35:20.445Z,93227.06
2022-12-23T08:36:23.983Z,93224.66
2022-12-23T08:37:25.529Z,93227.47
2022-12-23T08:38:27.022Z,93221.19
2022-12-23T08:39:28.592Z,93222.63
2022-12-23T08:40:30.098Z,93226.91
2022-12-23T08:41:35.754Z,93219.56
2022-12-23T08:42:37.253Z,93222.81
2022-12-23T08:43:40.512Z,93219.78
2022-12-23T08:44:42.063Z,93212.09
2022-12-23T08:45:43.861Z,93220.38
2022-12-23T08:46:50.931Z,93219.56
2022-12-23T08:47:52.465Z,93217.50
2022-12-23T08:48:54.400Z,93226.44
2022-12-23T08:49:55.966Z,93218.75
2022-12-23T08:50:57.457Z,93219.31
2022-12-23T08:51:58.983Z,93218.53
2022-12-23T08:53:00.529Z,93223.81
2022-12-23T08:54:02.851Z,93217.34
2022-12-23T08:55:09.444Z,93222.84
2022-12-23T08:56:14.055Z,93219.16
2022-12-23T08:57:15.528Z,93216.94
2022-12-23T08:58:17.023Z,93225.06
2022-12-23T08:59:29.075Z,93220.59
2022-12-23T09:00:30.600Z,93222.56
2022-12-23T09:01:34.090Z,93227.47
2022-12-23T09:02:35.906Z,93223.47
2022-12-23T09:03:38.938Z,93219.00
2022-12-23T09:04:40.587Z,93228.72
2022-12-23T09:05:42.297Z,93225.06
2022-12-23T09:06:44.260Z,93229.72
2022-12-23T09:07:45.833Z,93225.69
2022-12-23T09:08:47.468Z,93226.28
2022-12-23T09:09:50.385Z,93235.38
2022-12-23T09:10:51.885Z,93225.25
2022-12-23T09:11:53.414Z,93232.75
2022-12-23T09:12:57.800Z,93235.00
2022-12-23T09:14:01.239Z,93227.09
2022-12-23T09:15:04.868Z,93237.22
2022-12-23T09:16:08.070Z,93230.13
2022-12-23T09:17:09.706Z,93231.69
2022-12-23T09:18:12.267Z,93229.31
2022-12-23T09:19:13.768Z,93235.19
2022-12-23T09:20:15.335Z,93239.84
2022-12-23T09:21:19.081Z,93231.53
2022-12-23T09:22:20.655Z,93238.41
2022-12-23T09:23:22.208Z,93232.56
2022-12-23T09:24:24.280Z,93236.00
2022-12-23T09:25:25.773Z,93235.41
2022-12-23T09:26:29.757Z,93234.00
2022-12-23T09:27:31.241Z,93237.84
2022-12-23T09:28:33.347Z,93240.88
2022-12-23T09:29:34.877Z,93233.59
2022-12-23T09:30:37.728Z,93240.28
2022-12-23T09:31:39.408Z,93232.97
2022-12-23T09:32:40.933Z,93228.72
2022-12-23T09:33:42.853Z,93231.56
2022-12-23T09:34:45.631Z,93229.94
2022-12-23T09:35:47.206Z,93229.75
2022-12-23T09:36:54.854Z,93226.69
2022-12-23T09:37:56.833Z,93226.91
2022-12-23T09:38:59.089Z,93229.94
2022-12-23T09:40:00.715Z,93231.38
2022-12-23T09:41:04.039Z,93227.09
2022-12-23T09:42:17.095Z,93224.44
2022-12-23T09:43:29.526Z,93218.75
2022-12-23T09:44:56.341Z,93223.59
2022-12-23T09:46:06.681Z,93228.28
2022-12-23T09:47:13.000Z,93228.28
2022-12-23T09:48:18.282Z,93229.72
2022-12-23T09:49:22.069Z,93228.28
2022-12-23T09:50:26.410Z,93220.19
2022-12-23T09:51:29.379Z,93228.50
2022-12-23T09:52:58.800Z,93225.69
2022-12-23T09:54:10.800Z,93227.88
2022-12-23T09:55:16.258Z,93215.97
2022-12-23T09:56:25.082Z,93216.75
2022-12-23T09:57:32.973Z,93216.38
2022-12-23T09:58:52.064Z,93217.16
2022-12-23T10:00:07.044Z,93224.03
2022-12-23T10:01:18.748Z,93216.75
2022-12-23T10:02:28.427Z,93210.88
2022-12-23T10:03:38.806Z,93216.53
2022-12-23T10:04:48.425Z,93208.84
2022-12-23T10:06:02.436Z,93213.50
2022-12-23T10:07:27.797Z,93212.28
2022-12-23T10:08:33.312Z,93226.69
2022-12-23T10:09:42.744Z,93218.38
2022-12-23T10:10:48.380Z,93215.97
2022-12-23T10:11:50.298Z,93225.69
2022-12-23T10:12:53.792Z,93218.19
2022-12-23T10:13:58.572Z,93215.13
2022-12-23T10:15:02.916Z,93220.19
2022-12-23T10:16:08.194Z,93208.84
2022-12-23T10:17:17.411Z,93214.31
2022-12-23T10:18:25.156Z,93209.44
2022-12-23T10:19:32.274Z,93208.47
2022-12-23T10:20:39.802Z,93201.56
2022-12-23T10:21:47.604Z,93208.06
2022-12-23T10:22:50.326Z,93207.03
2022-12-23T10:23:54.347Z,93199.53
2022-12-23T10:24:58.314Z,93202.56
2022-12-23T10:26:04.341Z,93191.03
2022-12-23T10:27:19.492Z,93195.28
2022-12-23T10:28:21.146Z,93184.53
2022-12-23T10:29:23.987Z,93185.94
2022-12-23T10:31:57.694Z,93185.94
2022-12-23T10:33:04.992Z,93186.13
2022-12-23T10:34:15.344Z,93191.44
2022-12-23T10:35:30.712Z,93185.53
2022-12-23T10:36:44.865Z,93185.75
2022-12-23T10:37:54.017Z,93188.19
2022-12-23T10:39:01.673Z,93188.81
2022-12-23T10:40:16.068Z,93194.06
2022-12-23T10:41:29.984Z,93181.31
2022-12-23T10:42:37.153Z,93184.94
2022-12-23T10:44:00.328Z,93184.31
2022-12-23T10:45:17.072Z,93181.88
2022-12-23T10:46:28.826Z,93178.03
2022-12-23T10:47:40.715Z,93171.94
2022-12-23T10:48:56.142Z,93175.78
2022-12-23T10:50:12.654Z,93174.41
2022-12-23T10:51:18.088Z,93177.44
2022-12-23T10:52:21.422Z,93179.44
2022-12-23T10:53:32.981Z,93179.25
2022-12-23T10:54:36.689Z,93174.56
2022-12-23T10:55:39.183Z,93175.59
2022-12-23T10:56:40.685Z,93168.66
2022-12-23T10:57:42.217Z,93173.13
2022-12-23T10:58:46.576Z,93163.84
2022-12-23T10:59:48.087Z,93168.06
2022-12-23T11:00:53.829Z,93170.72
2022-12-23T11:02:02.868Z,93166.25
2022-12-23T11:03:15.157Z,93174.16
2022-12-23T11:04:23.413Z,93177.41
2022-12-23T11:05:28.373Z,93176.59
2022-12-23T11:06:37.169Z,93171.56
2022-12-23T11:07:44.724Z,93172.16
2022-12-23T11:08:47.611Z,93179.63
2022-12-23T11:09:54.392Z,93169.69
2022-12-23T11:10:56.662Z,93167.66
2022-12-23T11:12:00.881Z,93170.94
2022-12-23T11:13:02.559Z,93165.03
2022-12-23T11:14:04.108Z,93157.69
2022-12-23T11:15:23.946Z,93164.41
2022-12-23T11:16:28.038Z,93151.44
2022-12-23T11:17:31.549Z,93149.63
2022-12-23T11:18:37.426Z,93153.25
2022-12-23T11:19:43.362Z,93152.41
2022-12-23T11:21:00.720Z,93146.91
2022-12-23T11:22:02.235Z,93142.88
2022-12-23T11:23:05.695Z,93142.25
2022-12-23T11:24:16.464Z,93149.59
2022-12-23T11:25:27.695Z,93152.00
2022-12-23T11:26:29.228Z,93147.91
2022-12-23T11:27:30.878Z,93143.44
2022-12-23T11:28:34.302Z,93143.50
2022-12-23T11:29:38.609Z,93134.16
2022-12-23T11:30:56.321Z,93133.72
2022-12-23T11:31:58.948Z,93138.97
2022-12-23T11:33:00.669Z,93141.66
2022-12-23T11:34:04.631Z,93138.81
2022-12-23T11:35:24.030Z,93137.00
2022-12-23T11:36:27.779Z,93135.34
2022-12-23T11:37:36.616Z,93133.09
2022-12-23T11:38:49.404Z,93130.06
2022-12-23T11:39:51.033Z,93134.53
2022-12-23T11:40:52.644Z,93127.00
2022-12-23T11:42:02.430Z,93122.34
2022-12-23T11:43:13.343Z,93123.38
2022-12-23T11:44:21.931Z,93122.53
2022-12-23T11:45:26.944Z,93130.06
2022-12-23T11:46:31.563Z,93129.81
2022-12-23T11:47:43.081Z,93123.75
2022-12-23T11:48:51.321Z,93128.00
2022-12-23T11:49:59.739Z,93127.44
2022-12-23T11:51:03.934Z,93112.63
2022-12-23T11:52:13.201Z,93113.44
2022-12-23T11:53:34.590Z,93107.56
2022-12-23T11:54:37.009Z,93108.97
2022-12-23T11:55:45.209Z,93111.44
2022-12-23T11:56:50.011Z,93103.06
2022-12-23T11:57:52.715Z,93104.94
2022-12-23T11:59:00.791Z,93097.00
2022-12-23T12:00:05.483Z,93097.59
2022-12-23T12:01:14.511Z,93087.91
2022-12-23T12:02:25.226Z,93088.13
2022-12-23T12:03:31.150Z,93087.13
2022-12-23T12:04:35.839Z,93076.81
2022-12-23T12:05:40.033Z,93077.44
2022-12-23T12:06:49.638Z,93069.25
2022-12-23T12:07:59.553Z,93064.22
2022-12-23T12:09:03.967Z,93066.22
2022-12-23T12:12:16.695Z,93068.31
2022-12-23T12:13:25.954Z,93076.19
2022-12-23T12:14:32.759Z,93071.78
2022-12-23T12:15:41.445Z,93076.41
2022-12-23T12:16:54.584Z,93064.22
2022-12-23T12:17:58.219Z,93065.66
2022-12-23T12:19:04.329Z,93065.47
2022-12-23T12:20:14.202Z,93062.19
2022-12-23T12:21:20.113Z,93055.09
2022-12-23T12:22:30.894Z,93056.06
2022-12-23T12:23:40.401Z,93056.69
2022-12-23T12:24:47.514Z,93052.66
2022-12-23T12:25:55.748Z,93058.91
2022-12-23T12:27:01.819Z,93060.75
2022-12-23T12:28:05.133Z,93065.19
2022-12-23T12:29:15.116Z,93056.72
2022-12-23T12:30:20.147Z,93054.03
2022-12-23T12:31:27.133Z,93056.47
2022-12-23T12:32:36.409Z,93046.59
2022-12-23T12:33:45.712Z,93057.72
2022-12-23T12:34:53.178Z,93051.69
2022-12-23T12:36:06.925Z,93042.16
2022-12-23T12:37:22.314Z,93051.25
2022-12-23T12:38:27.924Z,93042.16
2022-12-23T12:39:33.399Z,93037.25
2022-12-23T12:40:40.195Z,93040.50
2022-12-23T12:41:51.069Z,93038.03
2022-12-23T12:42:59.471Z,93035.47
2022-12-23T12:44:09.797Z,93044.41
2022-12-23T12:45:17.351Z,93042.28